Flight Track Log - Related Links

Times and Time Zones

All times are in EDT time to prevent confusion due to time zone crossing. See the CTL17 flight status page for this flight to view local times or setup timezone preferences in your user account.

Time Position Orientation Groundspeed Altitude Reporting Facility
EDT Latitude Longitude Course Direction KTS MPH feet Rate Location/Type
Thu 03:57:11 PM 42.6631 -83.4125 71° East 121 139 1,300  Level Cleveland Center
Thu 03:57:48 PM 42.6700 -83.3844 71° East 121 139 1,900 973 Climbing Cleveland Center
Thu 03:59:00 PM 42.7245 -83.3978 350° North  Level FlightAware Approximate
Thu 04:06:00 PM 43.0157 -83.4939 321° Northwest  Level FlightAware Approximate
Thu 04:07:00 PM 43.0516 -83.5336 321° Northwest  Level FlightAware Approximate
Thu 04:08:00 PM 43.0875 -83.5733 321° Northwest  Level FlightAware Approximate
Thu 04:09:00 PM 43.1234 -83.6131 321° Northwest  Level FlightAware Approximate
Thu 04:10:00 PM 43.1592 -83.6528 321° Northwest  Level FlightAware Approximate
Thu 04:11:00 PM 43.1951 -83.6927 321° Northwest  Level FlightAware Approximate
Thu 04:12:00 PM 43.2304 -83.7334 318° Northwest  Level FlightAware Approximate
Thu 04:13:00 PM 43.2649 -83.7755 318° Northwest  Level FlightAware Approximate
Thu 04:14:00 PM 43.2994 -83.8176 318° Northwest  Level FlightAware Approximate
Thu 04:15:00 PM 43.3339 -83.8598 318° Northwest  Level FlightAware Approximate
Thu 04:16:00 PM 43.3685 -83.9018 324° Northwest  Level FlightAware Approximate
Thu 04:17:00 PM 43.4058 -83.9391 324° Northwest  Level FlightAware Approximate
Thu 04:18:00 PM 43.4432 -83.9764 324° Northwest  Level FlightAware Approximate
Thu 04:19:00 PM 43.4805 -84.0138 324° Northwest  Level FlightAware Approximate
Thu 04:20:00 PM 43.5125 -84.0584 305° West  Level FlightAware Approximate
Thu 04:21:00 PM 43.5167 -84.0667 305° West  Level FlightAware Approximate
Thu 04:22:00 PM 43.5329 -84.0796 305° West  Level Estimated
Thu 04:23:00 PM 43.5329 -84.0796 305° West  Level Estimated
Thu 04:24:00 PM 43.5329 -84.0796 305° West  Level Estimated
Thu 04:25:00 PM 43.5329 -84.0796 305° West  Level Estimated
Thu 04:26:00 PM 43.5329 -84.0796 305° West  Level Estimated
Thu 04:27:00 PM 43.5329 -84.0796 305° West  Level Estimated

Login

Don't have an account? Register now (free) for customized features, flight alerts, and more!